createdAt,value
2017-08-02T00:00:02.202Z,0
2017-08-02T00:00:28.360Z,0
2017-08-02T00:00:54.492Z,0
2017-08-02T00:01:20.625Z,0
2017-08-02T00:01:46.781Z,0
2017-08-02T00:02:12.887Z,0
2017-08-02T00:02:39.050Z,0
2017-08-02T00:03:05.212Z,0
2017-08-02T00:03:31.374Z,0
2017-08-02T00:03:57.510Z,0
2017-08-02T00:04:23.694Z,0
2017-08-02T00:04:49.854Z,0
2017-08-02T00:05:15.962Z,0
2017-08-02T00:05:42.125Z,0
2017-08-02T00:06:08.258Z,0
2017-08-02T00:06:34.392Z,0
2017-08-02T00:07:00.552Z,0
2017-08-02T00:07:26.740Z,0
2017-08-02T00:07:52.874Z,0
2017-08-02T00:08:19.006Z,0
2017-08-02T00:08:45.165Z,0
2017-08-02T00:09:11.327Z,0
2017-08-02T00:09:37.462Z,0
2017-08-02T00:10:03.649Z,0
2017-08-02T00:10:29.836Z,0
2017-08-02T00:10:55.972Z,0
2017-08-02T00:11:22.167Z,0
2017-08-02T00:11:48.324Z,0
2017-08-02T00:12:14.457Z,0
2017-08-02T00:12:40.618Z,0
2017-08-02T00:13:06.779Z,0
2017-08-02T00:13:32.884Z,0
2017-08-02T00:13:59.018Z,0
2017-08-02T00:14:25.151Z,0
2017-08-02T00:14:51.285Z,0
2017-08-02T00:15:17.477Z,0
2017-08-02T00:15:43.693Z,0
2017-08-02T00:16:09.825Z,0
2017-08-02T00:16:36.043Z,0
2017-08-02T00:17:02.205Z,0
2017-08-02T00:17:28.339Z,0
2017-08-02T00:17:54.558Z,0
2017-08-02T00:18:20.718Z,0
2017-08-02T00:18:46.879Z,0
2017-08-02T00:19:13.010Z,0
2017-08-02T00:19:39.226Z,0
2017-08-02T00:20:05.329Z,0
2017-08-02T00:20:31.490Z,0
2017-08-02T00:20:57.679Z,0
2017-08-02T00:21:23.841Z,0
2017-08-02T00:21:49.970Z,0
2017-08-02T00:22:16.103Z,0
2017-08-02T00:22:42.261Z,0
2017-08-02T00:23:08.368Z,0
2017-08-02T00:23:34.500Z,0
2017-08-02T00:24:00.607Z,0
2017-08-02T00:24:26.791Z,0
2017-08-02T00:24:52.953Z,0
2017-08-02T00:25:19.114Z,0
2017-08-02T00:25:45.274Z,0
2017-08-02T00:26:11.407Z,0
2017-08-02T00:26:37.597Z,0
2017-08-02T00:27:03.784Z,0
2017-08-02T00:27:29.890Z,0
2017-08-02T00:27:55.996Z,0
2017-08-02T00:28:22.186Z,0
2017-08-02T00:28:48.347Z,0
2017-08-02T00:29:14.481Z,0
2017-08-02T00:29:40.643Z,0
2017-08-02T00:30:06.773Z,0
2017-08-02T00:30:33.034Z,0
2017-08-02T00:30:59.191Z,0
2017-08-02T00:31:25.352Z,0
2017-08-02T00:31:51.512Z,0
2017-08-02T00:32:17.620Z,0
2017-08-02T00:32:43.751Z,0
2017-08-02T00:33:09.857Z,0
2017-08-02T00:33:35.990Z,0
2017-08-02T00:34:02.124Z,0
2017-08-02T00:34:28.288Z,0
2017-08-02T00:34:54.422Z,0
2017-08-02T00:35:20.555Z,0
2017-08-02T00:35:46.744Z,0
2017-08-02T00:36:12.940Z,0
2017-08-02T00:36:39.119Z,0
2017-08-02T00:37:05.251Z,0
2017-08-02T00:37:31.410Z,0
2017-08-02T00:37:57.544Z,0
2017-08-02T00:38:23.733Z,0
2017-08-02T00:38:49.893Z,0
2017-08-02T00:39:16.084Z,0
2017-08-02T00:39:42.192Z,0
2017-08-02T00:40:08.321Z,0
2017-08-02T00:40:34.453Z,0
2017-08-02T00:41:00.584Z,0
2017-08-02T00:41:26.743Z,0
2017-08-02T00:41:52.848Z,0
2017-08-02T00:42:18.952Z,0
2017-08-02T00:42:45.087Z,0
2017-08-02T00:43:11.221Z,0
2017-08-02T00:43:37.382Z,0
2017-08-02T00:44:03.572Z,0
2017-08-02T00:44:29.733Z,0
2017-08-02T00:44:55.869Z,0
2017-08-02T00:45:21.974Z,0
2017-08-02T00:45:48.137Z,0
2017-08-02T00:46:14.299Z,0
2017-08-02T00:46:40.407Z,0
2017-08-02T00:47:06.511Z,0
2017-08-02T00:47:32.645Z,0
2017-08-02T00:47:58.777Z,0
2017-08-02T00:48:24.961Z,0
2017-08-02T00:48:51.125Z,0
2017-08-02T00:49:17.285Z,0
2017-08-02T00:49:43.447Z,0
2017-08-02T00:50:09.551Z,0
2017-08-02T00:50:35.686Z,0
2017-08-02T00:51:01.819Z,0
2017-08-02T00:51:27.952Z,0
2017-08-02T00:51:54.084Z,0
2017-08-02T00:52:20.219Z,0
2017-08-02T00:52:46.379Z,0
2017-08-02T00:53:12.569Z,0
2017-08-02T00:53:38.727Z,0
2017-08-02T00:54:04.834Z,0
2017-08-02T00:54:30.966Z,0
2017-08-02T00:54:57.098Z,0
2017-08-02T00:55:23.285Z,0
2017-08-02T00:55:49.473Z,0
2017-08-02T00:56:15.605Z,0
2017-08-02T00:56:41.796Z,0
2017-08-02T00:57:07.956Z,0
2017-08-02T00:57:34.089Z,0
2017-08-02T00:58:00.248Z,0
2017-08-02T00:58:26.379Z,0
2017-08-02T00:58:52.590Z,0
2017-08-02T00:59:18.749Z,0
2017-08-02T00:59:44.910Z,0
2017-08-02T01:00:11.044Z,0
2017-08-02T01:00:37.262Z,0
2017-08-02T01:01:03.425Z,0
2017-08-02T01:01:29.642Z,0
2017-08-02T01:01:55.803Z,0
2017-08-02T01:02:21.962Z,0
2017-08-02T01:02:48.097Z,0
2017-08-02T01:03:14.231Z,0
2017-08-02T01:03:40.338Z,0
2017-08-02T01:04:06.471Z,0
2017-08-02T01:04:32.632Z,0
2017-08-02T01:04:58.793Z,0
2017-08-02T01:05:24.983Z,0
2017-08-02T01:05:51.143Z,0
2017-08-02T01:06:17.304Z,0
2017-08-02T01:06:43.439Z,0
2017-08-02T01:07:09.625Z,0
2017-08-02T01:07:35.758Z,0
2017-08-02T01:08:01.892Z,0
2017-08-02T01:08:27.996Z,0
2017-08-02T01:08:54.126Z,0
2017-08-02T01:09:20.256Z,0
2017-08-02T01:09:46.415Z,0
2017-08-02T01:10:12.609Z,0
2017-08-02T01:10:38.710Z,0
2017-08-02T01:11:04.844Z,0
2017-08-02T01:11:31.034Z,0
2017-08-02T01:11:57.194Z,0
2017-08-02T01:12:23.330Z,0
2017-08-02T01:12:49.460Z,0
2017-08-02T01:13:15.623Z,0
2017-08-02T01:13:41.811Z,0
2017-08-02T01:14:07.943Z,0
2017-08-02T01:14:34.050Z,0
2017-08-02T01:15:00.264Z,0
2017-08-02T01:15:26.424Z,0
2017-08-02T01:15:52.584Z,0
2017-08-02T01:16:18.801Z,0
2017-08-02T01:16:44.965Z,0
2017-08-02T01:17:11.152Z,0
2017-08-02T01:17:37.314Z,0
2017-08-02T01:18:03.531Z,0
2017-08-02T01:18:29.634Z,0
2017-08-02T01:18:55.821Z,0
2017-08-02T01:19:21.981Z,0
2017-08-02T01:19:48.114Z,0
2017-08-02T01:20:14.319Z,0
2017-08-02T01:20:40.405Z,0
2017-08-02T01:21:06.538Z,0
2017-08-02T01:21:32.725Z,0
2017-08-02T01:21:58.831Z,0
2017-08-02T01:22:24.991Z,0
2017-08-02T01:22:51.150Z,0
2017-08-02T01:23:17.282Z,0
2017-08-02T01:23:43.387Z,0
2017-08-02T01:24:09.496Z,0
2017-08-02T01:24:35.630Z,0
2017-08-02T01:25:01.816Z,0
2017-08-02T01:25:27.983Z,0
2017-08-02T01:25:54.194Z,0
2017-08-02T01:26:20.301Z,0
2017-08-02T01:26:46.408Z,0
2017-08-02T01:27:12.570Z,0
2017-08-02T01:27:38.703Z,0
2017-08-02T01:28:04.834Z,0
2017-08-02T01:28:30.996Z,0
2017-08-02T01:28:57.156Z,0
2017-08-02T01:29:23.262Z,0
2017-08-02T01:29:49.422Z,0
2017-08-02T01:30:15.606Z,0
2017-08-02T01:30:41.763Z,0
2017-08-02T01:31:07.981Z,0
2017-08-02T01:31:34.117Z,0
2017-08-02T01:32:00.253Z,0
2017-08-02T01:32:26.467Z,0
2017-08-02T01:32:52.623Z,0
2017-08-02T01:33:18.782Z,0
2017-08-02T01:33:44.941Z,0
2017-08-02T01:34:11.046Z,0
2017-08-02T01:34:37.232Z,0
2017-08-02T01:35:03.365Z,0
2017-08-02T01:35:29.499Z,0
2017-08-02T01:35:55.663Z,0
2017-08-02T01:36:21.796Z,0
2017-08-02T01:36:47.902Z,0
2017-08-02T01:37:14.061Z,0
2017-08-02T01:37:40.221Z,0
2017-08-02T01:38:06.353Z,0
2017-08-02T01:38:32.488Z,0
2017-08-02T01:38:58.648Z,0
2017-08-02T01:39:24.754Z,0
2017-08-02T01:39:50.940Z,0
2017-08-02T01:40:17.100Z,0
2017-08-02T01:40:43.233Z,0
2017-08-02T01:41:09.418Z,0
2017-08-02T01:41:35.524Z,0
2017-08-02T01:42:01.655Z,0
2017-08-02T01:42:27.761Z,0
2017-08-02T01:42:53.893Z,0
2017-08-02T01:43:20.025Z,0
2017-08-02T01:43:46.156Z,0
2017-08-02T01:44:12.317Z,0
2017-08-02T01:44:38.479Z,0
2017-08-02T01:45:04.638Z,0
2017-08-02T01:45:30.796Z,0
2017-08-02T01:45:56.901Z,0
2017-08-02T01:46:23.033Z,0
2017-08-02T01:46:49.166Z,0
2017-08-02T01:47:15.327Z,0
2017-08-02T01:47:41.461Z,0
2017-08-02T01:48:07.623Z,0
2017-08-02T01:48:33.757Z,0
2017-08-02T01:48:59.919Z,0
2017-08-02T01:49:26.209Z,0
2017-08-02T01:49:52.342Z,0
2017-08-02T01:50:18.527Z,0
2017-08-02T01:50:44.633Z,0
2017-08-02T01:51:10.766Z,0
2017-08-02T01:51:36.900Z,0
2017-08-02T01:52:03.034Z,0
2017-08-02T01:52:29.197Z,0
2017-08-02T01:52:55.300Z,0
2017-08-02T01:53:21.462Z,0
2017-08-02T01:53:47.624Z,0
2017-08-02T01:54:13.757Z,0
2017-08-02T01:54:39.894Z,0
2017-08-02T01:55:06.030Z,0
2017-08-02T01:55:32.320Z,0
2017-08-02T01:55:58.456Z,0
2017-08-02T01:56:24.617Z,0
2017-08-02T01:56:50.749Z,0
2017-08-02T01:57:16.882Z,0
2017-08-02T01:57:43.071Z,0
2017-08-02T01:58:09.231Z,0
2017-08-02T01:58:35.391Z,0
2017-08-02T01:59:01.551Z,0
2017-08-02T01:59:27.684Z,0
2017-08-02T01:59:53.847Z,0
2017-08-02T02:00:20.008Z,0
2017-08-02T02:00:46.142Z,0
2017-08-02T02:01:12.305Z,0
2017-08-02T02:01:38.463Z,0
2017-08-02T02:02:04.596Z,0
2017-08-02T02:02:30.758Z,0
2017-08-02T02:02:56.917Z,0
2017-08-02T02:03:23.052Z,0
2017-08-02T02:03:49.210Z,0
2017-08-02T02:04:15.397Z,0
2017-08-02T02:04:41.530Z,0
2017-08-02T02:05:07.692Z,0
2017-08-02T02:05:33.800Z,0
2017-08-02T02:05:59.934Z,0
2017-08-02T02:06:26.124Z,0
2017-08-02T02:06:52.258Z,0
2017-08-02T02:07:18.418Z,0
2017-08-02T02:07:44.525Z,0
2017-08-02T02:08:10.662Z,0
2017-08-02T02:08:36.796Z,0
2017-08-02T02:09:02.929Z,0
2017-08-02T02:09:29.091Z,0
2017-08-02T02:09:55.252Z,0
2017-08-02T02:10:21.414Z,0
2017-08-02T02:10:47.572Z,0
2017-08-02T02:11:13.744Z,0
2017-08-02T02:11:39.920Z,0
2017-08-02T02:12:06.026Z,0
2017-08-02T02:12:32.156Z,0
2017-08-02T02:12:58.290Z,0
2017-08-02T02:13:24.507Z,0
2017-08-02T02:13:50.668Z,0
2017-08-02T02:14:16.774Z,0
2017-08-02T02:14:42.908Z,0
2017-08-02T02:15:09.042Z,0
2017-08-02T02:15:35.202Z,0
2017-08-02T02:16:01.336Z,0
2017-08-02T02:16:27.525Z,0
2017-08-02T02:16:53.659Z,0
2017-08-02T02:17:19.793Z,0
2017-08-02T02:17:45.981Z,0
2017-08-02T02:18:12.114Z,0
2017-08-02T02:18:38.246Z,0
2017-08-02T02:19:04.436Z,0
2017-08-02T02:19:30.597Z,0
2017-08-02T02:19:56.732Z,0
2017-08-02T02:20:22.867Z,0
2017-08-02T02:20:49.059Z,0
2017-08-02T02:21:15.166Z,0
2017-08-02T02:21:41.298Z,0
2017-08-02T02:22:07.488Z,0
2017-08-02T02:22:33.621Z,0
2017-08-02T02:22:59.727Z,0
2017-08-02T02:23:25.888Z,0
2017-08-02T02:23:52.073Z,0
2017-08-02T02:24:18.233Z,0
2017-08-02T02:24:44.422Z,0
2017-08-02T02:25:10.636Z,0
2017-08-02T02:25:36.820Z,0
2017-08-02T02:26:02.953Z,0
2017-08-02T02:26:29.088Z,0
2017-08-02T02:26:55.300Z,0
2017-08-02T02:27:21.489Z,0
2017-08-02T02:27:47.707Z,0
2017-08-02T02:28:13.870Z,0
2017-08-02T02:28:39.975Z,0
2017-08-02T02:29:06.108Z,0
2017-08-02T02:29:32.295Z,0
2017-08-02T02:29:58.454Z,0
2017-08-02T02:30:24.613Z,0
2017-08-02T02:30:50.776Z,0
2017-08-02T02:31:16.963Z,0
2017-08-02T02:31:43.095Z,0
2017-08-02T02:32:09.287Z,0
2017-08-02T02:32:35.447Z,0
2017-08-02T02:33:01.581Z,0
2017-08-02T02:33:27.796Z,0
2017-08-02T02:33:53.957Z,0
2017-08-02T02:34:20.089Z,0
2017-08-02T02:34:46.221Z,0
2017-08-02T02:35:12.381Z,0
2017-08-02T02:35:38.570Z,0
2017-08-02T02:36:04.756Z,0
2017-08-02T02:36:30.922Z,0
2017-08-02T02:36:57.107Z,0
2017-08-02T02:37:23.241Z,0
2017-08-02T02:37:49.428Z,0
2017-08-02T02:38:15.617Z,0
2017-08-02T02:38:41.801Z,0
2017-08-02T02:39:07.939Z,0
2017-08-02T02:39:34.102Z,0
2017-08-02T02:40:00.293Z,0
2017-08-02T02:40:26.454Z,0
2017-08-02T02:40:52.616Z,0
2017-08-02T02:41:18.750Z,0
2017-08-02T02:41:44.911Z,0
2017-08-02T02:42:11.053Z,0
2017-08-02T02:42:37.226Z,0
2017-08-02T02:43:03.381Z,0
2017-08-02T02:43:29.554Z,0
2017-08-02T02:43:55.645Z,0
2017-08-02T02:44:21.810Z,0
2017-08-02T02:44:47.930Z,0
2017-08-02T02:45:14.141Z,0
2017-08-02T02:45:40.324Z,0
2017-08-02T02:46:06.465Z,0
2017-08-02T02:46:32.628Z,0
2017-08-02T02:46:58.776Z,0
2017-08-02T02:47:24.891Z,0
2017-08-02T02:47:52.436Z,0
2017-08-02T02:48:18.584Z,0
2017-08-02T02:48:44.719Z,0
2017-08-02T02:49:10.862Z,0
2017-08-02T02:49:37.031Z,0
2017-08-02T02:50:03.159Z,0
2017-08-02T02:50:29.305Z,0
2017-08-02T02:50:55.495Z,0
2017-08-02T02:51:21.646Z,0
2017-08-02T02:51:47.771Z,0
2017-08-02T02:52:13.961Z,0
2017-08-02T02:52:40.102Z,0
2017-08-02T02:53:06.249Z,0
2017-08-02T02:53:32.407Z,0
2017-08-02T02:53:58.526Z,0
2017-08-02T02:54:24.641Z,0
2017-08-02T02:54:50.806Z,0
2017-08-02T02:55:16.958Z,0
2017-08-02T02:55:43.074Z,0
2017-08-02T02:56:09.262Z,0
2017-08-02T02:56:35.419Z,0
2017-08-02T02:57:01.544Z,0
2017-08-02T02:57:27.713Z,0
2017-08-02T02:57:53.825Z,0
2017-08-02T02:58:19.987Z,0
2017-08-02T02:58:46.113Z,0
2017-08-02T02:59:12.199Z,0
2017-08-02T02:59:38.355Z,0
2017-08-02T03:00:04.483Z,0
2017-08-02T03:00:30.669Z,0
2017-08-02T03:00:56.800Z,0
2017-08-02T03:01:22.961Z,0
2017-08-02T03:01:49.074Z,0
2017-08-02T03:02:15.196Z,0
2017-08-02T03:02:41.316Z,0
2017-08-02T03:03:07.532Z,0
2017-08-02T03:03:33.659Z,0
2017-08-02T03:03:59.801Z,0
2017-08-02T03:04:25.980Z,0
2017-08-02T03:04:52.087Z,0
2017-08-02T03:05:18.192Z,0
2017-08-02T03:05:44.338Z,0
2017-08-02T03:06:10.498Z,0
2017-08-02T03:06:36.614Z,0
2017-08-02T03:07:02.759Z,0
2017-08-02T03:07:28.866Z,0
2017-08-02T03:07:55.010Z,0
2017-08-02T03:08:21.140Z,0
2017-08-02T03:08:47.250Z,0
2017-08-02T03:09:13.424Z,0
2017-08-02T03:09:39.586Z,0
2017-08-02T03:10:05.724Z,0
2017-08-02T03:10:31.851Z,0
2017-08-02T03:10:57.984Z,0
2017-08-02T03:11:24.099Z,0
2017-08-02T03:11:50.211Z,0
2017-08-02T03:12:16.350Z,0
2017-08-02T03:12:42.527Z,0
2017-08-02T03:13:08.691Z,0
2017-08-02T03:13:34.848Z,0
2017-08-02T03:14:00.964Z,0
2017-08-02T03:14:27.127Z,0
2017-08-02T03:14:53.274Z,0
2017-08-02T03:15:19.438Z,0
2017-08-02T03:15:45.602Z,0
2017-08-02T03:16:11.782Z,4
2017-08-02T03:16:37.898Z,4
2017-08-02T03:17:04.030Z,4
2017-08-02T03:17:30.209Z,4
2017-08-02T03:17:56.303Z,4
2017-08-02T03:18:22.451Z,4
2017-08-02T03:18:48.556Z,4
2017-08-02T03:19:14.644Z,4
2017-08-02T03:19:40.766Z,4
2017-08-02T03:20:06.953Z,0
2017-08-02T03:20:33.067Z,0
2017-08-02T03:20:59.189Z,0
2017-08-02T03:21:25.379Z,4
2017-08-02T03:21:51.522Z,4
2017-08-02T03:22:17.686Z,4
2017-08-02T03:22:43.824Z,4
2017-08-02T03:23:10.003Z,4
2017-08-02T03:23:36.118Z,4
2017-08-02T03:24:02.274Z,4
2017-08-02T03:24:28.478Z,8
2017-08-02T03:24:54.650Z,4
2017-08-02T03:25:20.776Z,4
2017-08-02T03:25:46.910Z,4
2017-08-02T03:26:13.049Z,8
2017-08-02T03:26:39.200Z,8
2017-08-02T03:27:05.314Z,8
2017-08-02T03:27:31.498Z,4
2017-08-02T03:27:57.682Z,8
2017-08-02T03:28:23.849Z,8
2017-08-02T03:28:49.999Z,12
2017-08-02T03:29:16.136Z,8
2017-08-02T03:29:42.301Z,8
2017-08-02T03:30:08.425Z,12
2017-08-02T03:30:34.626Z,8
2017-08-02T03:31:00.835Z,12
2017-08-02T03:31:27.020Z,16
2017-08-02T03:31:53.131Z,12
2017-08-02T03:32:19.308Z,16
2017-08-02T03:32:45.416Z,16
2017-08-02T03:33:11.527Z,16
2017-08-02T03:33:37.725Z,20
2017-08-02T03:34:03.881Z,20
2017-08-02T03:34:30.047Z,24
2017-08-02T03:34:56.217Z,24
2017-08-02T03:35:22.350Z,24
2017-08-02T03:35:48.551Z,28
2017-08-02T03:36:14.739Z,28
2017-08-02T03:36:40.822Z,28
2017-08-02T03:37:06.973Z,32
2017-08-02T03:37:33.080Z,36
2017-08-02T03:37:59.195Z,40
2017-08-02T03:38:25.316Z,40
2017-08-02T03:38:51.474Z,40
2017-08-02T03:39:17.621Z,44
2017-08-02T03:39:43.787Z,48
2017-08-02T03:40:09.922Z,48
2017-08-02T03:40:36.125Z,52
2017-08-02T03:41:02.237Z,56
2017-08-02T03:41:28.367Z,60
2017-08-02T03:41:54.460Z,64
2017-08-02T03:42:20.621Z,68
2017-08-02T03:42:46.797Z,76
2017-08-02T03:43:12.912Z,80
2017-08-02T03:43:39.097Z,84
2017-08-02T03:44:05.194Z,84
2017-08-02T03:44:31.309Z,88
2017-08-02T03:44:57.439Z,88
2017-08-02T03:45:23.564Z,92
2017-08-02T03:45:49.725Z,96
2017-08-02T03:46:15.882Z,96
2017-08-02T03:46:42.009Z,100
2017-08-02T03:47:08.103Z,104
2017-08-02T03:47:34.199Z,108
2017-08-02T03:48:00.317Z,108
2017-08-02T03:48:26.475Z,112
2017-08-02T03:48:52.600Z,116
2017-08-02T03:49:18.714Z,120
2017-08-02T03:49:44.863Z,124
2017-08-02T03:50:11.022Z,128
2017-08-02T03:50:37.107Z,136
2017-08-02T03:51:03.232Z,140
2017-08-02T03:51:29.422Z,144
2017-08-02T03:51:55.586Z,148
2017-08-02T03:52:21.705Z,156
2017-08-02T03:52:47.802Z,164
2017-08-02T03:53:13.952Z,168
2017-08-02T03:53:40.113Z,176
2017-08-02T03:54:06.252Z,180
2017-08-02T03:54:32.377Z,188
2017-08-02T03:54:58.509Z,192
2017-08-02T03:55:24.646Z,200
2017-08-02T03:55:50.768Z,212
2017-08-02T03:56:16.904Z,216
2017-08-02T03:56:43.023Z,228
2017-08-02T03:57:09.163Z,232
2017-08-02T03:57:35.292Z,244
2017-08-02T03:58:01.467Z,252
2017-08-02T03:58:27.570Z,260
2017-08-02T03:58:53.686Z,268
2017-08-02T03:59:19.806Z,276
2017-08-02T03:59:45.965Z,288
2017-08-02T04:00:12.088Z,296
2017-08-02T04:00:38.200Z,304
2017-08-02T04:01:04.335Z,312
2017-08-02T04:01:30.459Z,320
2017-08-02T04:01:56.575Z,332
2017-08-02T04:02:22.731Z,344
2017-08-02T04:02:48.919Z,352
2017-08-02T04:03:15.052Z,364
2017-08-02T04:03:41.155Z,376
2017-08-02T04:04:07.260Z,392
2017-08-02T04:04:33.373Z,404
2017-08-02T04:04:59.545Z,420
2017-08-02T04:05:25.706Z,436
2017-08-02T04:05:51.848Z,448
2017-08-02T04:06:17.967Z,464
2017-08-02T04:06:44.098Z,480
2017-08-02T04:07:10.246Z,496
2017-08-02T04:07:36.407Z,516
2017-08-02T04:08:02.544Z,532
2017-08-02T04:08:28.721Z,556
2017-08-02T04:08:54.857Z,576
2017-08-02T04:09:21.039Z,596
2017-08-02T04:09:47.182Z,616
2017-08-02T04:10:13.343Z,636
2017-08-02T04:10:39.465Z,660
2017-08-02T04:11:05.624Z,680
2017-08-02T04:11:31.787Z,704
2017-08-02T04:11:57.941Z,732
2017-08-02T04:12:24.080Z,756
2017-08-02T04:12:50.206Z,788
2017-08-02T04:13:16.360Z,812
2017-08-02T04:13:42.475Z,844
2017-08-02T04:14:08.626Z,868
2017-08-02T04:14:34.789Z,900
2017-08-02T04:15:00.887Z,928
2017-08-02T04:15:27.062Z,960
2017-08-02T04:15:53.227Z,996
2017-08-02T04:16:19.362Z,1032
2017-08-02T04:16:45.460Z,1072
2017-08-02T04:17:11.627Z,1116
2017-08-02T04:17:37.781Z,1160
2017-08-02T04:18:03.942Z,1204
2017-08-02T04:18:30.082Z,1252
2017-08-02T04:18:56.204Z,1292
2017-08-02T04:19:22.335Z,1336
2017-08-02T04:19:48.505Z,1380
2017-08-02T04:20:14.682Z,1424
2017-08-02T04:20:40.771Z,1460
2017-08-02T04:21:06.925Z,1500
2017-08-02T04:21:33.054Z,1540
2017-08-02T04:21:59.165Z,1580
2017-08-02T04:22:25.340Z,1612
2017-08-02T04:22:51.474Z,1644
2017-08-02T04:23:17.617Z,1672
2017-08-02T04:23:43.734Z,1696
2017-08-02T04:24:09.868Z,1720
2017-08-02T04:24:36.012Z,1744
2017-08-02T04:25:02.124Z,1764
2017-08-02T04:25:28.261Z,1796
2017-08-02T04:25:54.387Z,1824
2017-08-02T04:26:20.548Z,1852
2017-08-02T04:26:46.736Z,1880
2017-08-02T04:27:12.891Z,1920
2017-08-02T04:27:39.049Z,1964
2017-08-02T04:28:05.228Z,2020
2017-08-02T04:28:31.388Z,2088
2017-08-02T04:28:57.548Z,2156
2017-08-02T04:29:23.722Z,2228
2017-08-02T04:29:49.828Z,2296
2017-08-02T04:30:15.944Z,2368
2017-08-02T04:30:42.089Z,2436
2017-08-02T04:31:08.249Z,2492
2017-08-02T04:31:34.341Z,2540
2017-08-02T04:32:00.520Z,2576
2017-08-02T04:32:26.633Z,2608
2017-08-02T04:32:52.733Z,2644
2017-08-02T04:33:18.891Z,2688
2017-08-02T04:33:45.011Z,2728
2017-08-02T04:34:11.109Z,2760
2017-08-02T04:34:37.242Z,2772
2017-08-02T04:35:03.372Z,2760
2017-08-02T04:35:29.478Z,2728
2017-08-02T04:35:55.693Z,2676
2017-08-02T04:36:21.791Z,2628
2017-08-02T04:36:47.879Z,2588
2017-08-02T04:37:13.984Z,2556
2017-08-02T04:37:40.077Z,2520
2017-08-02T04:38:06.268Z,2496
2017-08-02T04:38:32.411Z,2480
2017-08-02T04:38:58.553Z,2476
2017-08-02T04:39:24.717Z,2500
2017-08-02T04:39:50.841Z,2556
2017-08-02T04:40:16.954Z,2628
2017-08-02T04:40:43.089Z,2716
2017-08-02T04:41:09.213Z,2836
2017-08-02T04:41:35.373Z,2976
2017-08-02T04:42:01.502Z,3124
2017-08-02T04:42:27.662Z,3260
2017-08-02T04:42:53.781Z,3372
2017-08-02T04:43:19.968Z,3452
2017-08-02T04:43:46.051Z,3504
2017-08-02T04:44:12.235Z,3540
2017-08-02T04:44:38.389Z,3576
2017-08-02T04:45:04.507Z,3628
2017-08-02T04:45:30.684Z,3704
2017-08-02T04:45:56.873Z,3796
2017-08-02T04:46:22.994Z,3896
2017-08-02T04:46:49.109Z,4000
2017-08-02T04:47:15.245Z,4120
2017-08-02T04:47:41.360Z,4244
2017-08-02T04:48:07.478Z,4328
2017-08-02T04:48:33.611Z,4396
2017-08-02T04:48:59.756Z,4476
2017-08-02T04:49:25.920Z,4552
2017-08-02T04:49:52.088Z,4608
2017-08-02T04:50:18.207Z,4648
2017-08-02T04:50:44.345Z,4676
2017-08-02T04:51:10.476Z,4704
2017-08-02T04:51:36.606Z,4744
2017-08-02T04:52:02.744Z,4768
2017-08-02T04:52:28.876Z,4788
2017-08-02T04:52:55.036Z,4764
2017-08-02T04:53:21.149Z,4740
2017-08-02T04:53:47.274Z,4784
2017-08-02T04:54:13.391Z,4884
2017-08-02T04:54:39.523Z,4916
2017-08-02T04:55:05.802Z,4840
2017-08-02T04:55:31.854Z,4712
2017-08-02T04:55:58.030Z,4636
2017-08-02T04:56:24.247Z,4556
2017-08-02T04:56:50.385Z,4364
2017-08-02T04:57:16.532Z,4128
2017-08-02T04:57:42.664Z,3964
2017-08-02T04:58:08.780Z,3892
2017-08-02T04:58:34.900Z,3844
2017-08-02T04:59:01.038Z,3804
2017-08-02T04:59:27.151Z,3784
2017-08-02T04:59:53.262Z,3760
2017-08-02T05:00:19.420Z,3744
2017-08-02T05:00:45.544Z,3728
2017-08-02T05:01:11.680Z,3692
2017-08-02T05:01:37.796Z,3668
2017-08-02T05:02:03.967Z,3628
2017-08-02T05:02:30.100Z,3576
2017-08-02T05:02:56.241Z,3520
2017-08-02T05:03:22.357Z,3456
2017-08-02T05:03:48.550Z,3384
2017-08-02T05:04:14.694Z,3312
2017-08-02T05:04:40.808Z,3232
2017-08-02T05:05:06.942Z,3156
2017-08-02T05:05:33.112Z,3100
2017-08-02T05:05:59.303Z,3048
2017-08-02T05:06:25.451Z,2984
2017-08-02T05:06:51.565Z,2932
2017-08-02T05:07:17.831Z,2908
2017-08-02T05:07:44.036Z,2916
2017-08-02T05:08:10.179Z,2928
2017-08-02T05:08:36.308Z,2952
2017-08-02T05:09:02.436Z,2988
2017-08-02T05:09:28.551Z,3032
2017-08-02T05:09:54.680Z,3096
2017-08-02T05:10:20.815Z,3172
2017-08-02T05:10:47.010Z,3256
2017-08-02T05:11:13.161Z,3372
2017-08-02T05:11:39.297Z,3496
2017-08-02T05:12:05.426Z,3628
2017-08-02T05:12:31.583Z,3772
2017-08-02T05:12:57.673Z,3908
2017-08-02T05:13:23.822Z,4052
2017-08-02T05:13:49.981Z,4188
2017-08-02T05:14:16.146Z,4316
2017-08-02T05:14:42.294Z,4440
2017-08-02T05:15:08.457Z,4536
2017-08-02T05:15:34.596Z,4596
2017-08-02T05:16:00.718Z,4652
2017-08-02T05:16:26.843Z,4708
2017-08-02T05:16:52.945Z,4768
2017-08-02T05:17:19.076Z,4844
2017-08-02T05:17:45.191Z,4944
2017-08-02T05:18:11.311Z,5060
2017-08-02T05:18:37.471Z,5208
2017-08-02T05:19:03.610Z,5328
2017-08-02T05:19:29.707Z,5440
2017-08-02T05:19:55.900Z,5496
2017-08-02T05:20:22.044Z,5508
2017-08-02T05:20:48.206Z,5468
2017-08-02T05:21:14.342Z,5412
2017-08-02T05:21:40.524Z,5336
2017-08-02T05:22:06.673Z,5236
2017-08-02T05:22:32.816Z,5144
2017-08-02T05:22:58.913Z,5080
2017-08-02T05:23:25.105Z,5056
2017-08-02T05:23:51.304Z,5060
2017-08-02T05:24:17.443Z,5096
2017-08-02T05:24:43.550Z,5144
2017-08-02T05:25:09.699Z,5192
2017-08-02T05:25:35.859Z,5236
2017-08-02T05:26:02.019Z,5272
2017-08-02T05:26:28.229Z,5304
2017-08-02T05:26:54.366Z,5320
2017-08-02T05:27:20.541Z,5352
2017-08-02T05:27:46.659Z,5412
2017-08-02T05:28:12.848Z,5488
2017-08-02T05:28:39.056Z,5584
2017-08-02T05:29:05.193Z,5708
2017-08-02T05:29:31.299Z,5836
2017-08-02T05:29:57.397Z,5940
2017-08-02T05:30:23.538Z,6004
2017-08-02T05:30:49.641Z,6040
2017-08-02T05:31:15.776Z,6064
2017-08-02T05:31:41.889Z,6120
2017-08-02T05:32:08.064Z,6216
2017-08-02T05:32:34.253Z,6364
2017-08-02T05:33:00.394Z,6584
2017-08-02T05:33:26.516Z,6888
2017-08-02T05:33:52.675Z,7200
2017-08-02T05:34:18.797Z,7468
2017-08-02T05:34:44.909Z,7700
2017-08-02T05:35:11.075Z,7872
2017-08-02T05:35:37.198Z,8036
2017-08-02T05:36:03.340Z,8180
2017-08-02T05:36:29.469Z,8304
2017-08-02T05:36:55.649Z,8420
2017-08-02T05:37:21.761Z,8520
2017-08-02T05:37:47.892Z,8544
2017-08-02T05:38:14.000Z,8516
2017-08-02T05:38:40.146Z,8444
2017-08-02T05:39:06.295Z,8320
2017-08-02T05:39:32.462Z,8148
2017-08-02T05:39:58.645Z,7928
2017-08-02T05:40:24.800Z,7680
2017-08-02T05:40:50.916Z,7428
2017-08-02T05:41:17.070Z,7196
2017-08-02T05:41:43.255Z,7008
2017-08-02T05:42:09.372Z,6880
2017-08-02T05:42:35.519Z,6848
2017-08-02T05:43:01.710Z,6908
2017-08-02T05:43:27.855Z,7040
2017-08-02T05:43:53.954Z,7216
2017-08-02T05:44:20.077Z,7404
2017-08-02T05:44:46.230Z,7584
2017-08-02T05:45:12.397Z,7724
2017-08-02T05:45:38.560Z,7872
2017-08-02T05:46:04.706Z,8028
2017-08-02T05:46:30.871Z,8228
2017-08-02T05:46:57.013Z,8452
2017-08-02T05:47:23.160Z,8688
2017-08-02T05:47:49.348Z,8936
2017-08-02T05:48:15.467Z,9196
2017-08-02T05:48:41.580Z,9504
2017-08-02T05:49:07.769Z,9812
2017-08-02T05:49:33.896Z,10084
2017-08-02T05:50:00.050Z,10336
2017-08-02T05:50:26.163Z,10528
2017-08-02T05:50:52.282Z,10680
2017-08-02T05:51:18.414Z,10800
2017-08-02T05:51:44.566Z,10888
2017-08-02T05:52:10.754Z,10964
2017-08-02T05:52:36.890Z,11024
2017-08-02T05:53:03.044Z,11016
2017-08-02T05:53:29.182Z,11016
2017-08-02T05:53:55.517Z,11016
2017-08-02T05:54:21.730Z,11004
2017-08-02T05:54:47.842Z,10984
2017-08-02T05:55:14.051Z,10972
2017-08-02T05:55:40.138Z,10908
2017-08-02T05:56:06.329Z,10780
2017-08-02T05:56:32.454Z,10616
2017-08-02T05:56:58.544Z,10364
2017-08-02T05:57:24.649Z,10008
2017-08-02T05:57:50.802Z,9548
2017-08-02T05:58:16.943Z,8980
2017-08-02T05:58:43.148Z,8388
2017-08-02T05:59:09.308Z,7844
2017-08-02T05:59:35.474Z,7408
2017-08-02T06:00:01.655Z,7132
2017-08-02T06:00:27.873Z,6940
2017-08-02T06:00:53.992Z,6808
2017-08-02T06:01:20.175Z,6704
2017-08-02T06:01:46.290Z,6604
2017-08-02T06:02:12.423Z,6536
2017-08-02T06:02:38.641Z,6548
2017-08-02T06:03:04.778Z,6612
2017-08-02T06:03:30.903Z,6616
2017-08-02T06:03:57.010Z,6500
2017-08-02T06:04:23.152Z,6272
2017-08-02T06:04:49.249Z,6064
2017-08-02T06:05:15.410Z,5968
2017-08-02T06:05:41.532Z,6080
2017-08-02T06:06:07.673Z,6364
2017-08-02T06:06:33.861Z,6784
2017-08-02T06:07:00.010Z,7256
2017-08-02T06:07:26.198Z,7704
2017-08-02T06:07:52.343Z,8152
2017-08-02T06:08:18.489Z,8524
2017-08-02T06:08:44.623Z,8752
2017-08-02T06:09:10.793Z,8864
2017-08-02T06:09:36.934Z,8876
2017-08-02T06:10:03.068Z,8848
2017-08-02T06:10:29.198Z,8840